sensor_id;sensor_type;location;lat;lon;timestamp;pressure;altitude;pressure_sealevel;temperature;humidity
12973;BME280;6551;51.056;9.466;2023-06-24T00:01:31;98466.91;;;20.30;74.81
12973;BME280;6551;51.056;9.466;2023-06-24T00:03:57;98463.91;;;20.26;74.63
12973;BME280;6551;51.056;9.466;2023-06-24T00:06:23;98461.22;;;20.26;74.92
12973;BME280;6551;51.056;9.466;2023-06-24T00:08:52;98459.56;;;20.25;74.90
12973;BME280;6551;51.056;9.466;2023-06-24T00:11:29;98459.81;;;20.24;74.52
12973;BME280;6551;51.056;9.466;2023-06-24T00:13:55;98459.81;;;20.24;74.98
12973;BME280;6551;51.056;9.466;2023-06-24T00:16:21;98454.41;;;20.24;74.92
12973;BME280;6551;51.056;9.466;2023-06-24T00:18:53;98458.50;;;20.26;74.99
12973;BME280;6551;51.056;9.466;2023-06-24T00:21:19;98457.41;;;20.27;74.89
12973;BME280;6551;51.056;9.466;2023-06-24T00:23:46;98464.19;;;20.30;74.89
12973;BME280;6551;51.056;9.466;2023-06-24T00:26:15;98463.09;;;20.26;75.65
12973;BME280;6551;51.056;9.466;2023-06-24T00:28:42;98462.81;;;20.27;75.61
12973;BME280;6551;51.056;9.466;2023-06-24T00:31:08;98466.66;;;20.31;75.21
12973;BME280;6551;51.056;9.466;2023-06-24T00:33:35;98471.25;;;20.31;75.38
12973;BME280;6551;51.056;9.466;2023-06-24T00:36:02;98467.16;;;20.28;75.26
12973;BME280;6551;51.056;9.466;2023-06-24T00:38:30;98466.63;;;20.26;74.86
12973;BME280;6551;51.056;9.466;2023-06-24T00:40:58;98464.09;;;20.20;75.27
12973;BME280;6551;51.056;9.466;2023-06-24T00:43:25;98463.09;;;20.26;75.11
12973;BME280;6551;51.056;9.466;2023-06-24T00:45:51;98469.88;;;20.28;75.07
12973;BME280;6551;51.056;9.466;2023-06-24T00:48:19;98459.44;;;20.10;74.45
12973;BME280;6551;51.056;9.466;2023-06-24T00:50:46;98470.81;;;20.12;75.28
12973;BME280;6551;51.056;9.466;2023-06-24T00:53:12;98464.25;;;20.03;75.42
12973;BME280;6551;51.056;9.466;2023-06-24T00:55:38;98474.56;;;20.06;75.41
12973;BME280;6551;51.056;9.466;2023-06-24T00:58:04;98477.75;;;19.98;75.94
12973;BME280;6551;51.056;9.466;2023-06-24T01:00:31;98470.47;;;19.99;75.31
12973;BME280;6551;51.056;9.466;2023-06-24T01:03:00;98468.25;;;19.91;74.67
12973;BME280;6551;51.056;9.466;2023-06-24T01:05:27;98467.06;;;19.81;75.89
12973;BME280;6551;51.056;9.466;2023-06-24T01:07:55;98476.28;;;19.85;76.10
12973;BME280;6551;51.056;9.466;2023-06-24T01:10:23;98471.19;;;19.89;76.02
12973;BME280;6551;51.056;9.466;2023-06-24T01:12:49;98470.41;;;19.94;76.20
12973;BME280;6551;51.056;9.466;2023-06-24T01:15:17;98485.03;;;19.98;75.73
12973;BME280;6551;51.056;9.466;2023-06-24T01:17:53;98472.59;;;19.97;75.73
12973;BME280;6551;51.056;9.466;2023-06-24T01:20:34;98475.91;;;20.04;75.06
12973;BME280;6551;51.056;9.466;2023-06-24T01:29:47;98462.69;;;20.07;74.62
12973;BME280;6551;51.056;9.466;2023-06-24T01:32:33;98467.78;;;20.04;74.75
12973;BME280;6551;51.056;9.466;2023-06-24T01:35:11;98458.56;;;20.00;75.32
12973;BME280;6551;51.056;9.466;2023-06-24T01:37:46;98467.69;;;19.94;75.46
12973;BME280;6551;51.056;9.466;2023-06-24T01:42:44;98457.63;;;19.84;75.40
12973;BME280;6551;51.056;9.466;2023-06-24T01:45:16;98464.09;;;19.83;74.97
12973;BME280;6551;51.056;9.466;2023-06-24T01:47:47;98468.44;;;19.84;74.88
12973;BME280;6551;51.056;9.466;2023-06-24T01:50:14;98471.16;;;19.84;74.12
12973;BME280;6551;51.056;9.466;2023-06-24T01:52:44;98470.88;;;19.85;73.76
12973;BME280;6551;51.056;9.466;2023-06-24T01:55:14;98470.88;;;19.85;73.01
12973;BME280;6551;51.056;9.466;2023-06-24T01:57:42;98467.97;;;19.92;72.50
12973;BME280;6551;51.056;9.466;2023-06-24T02:00:11;98469.09;;;19.96;72.50
12973;BME280;6551;51.056;9.466;2023-06-24T02:02:38;98465.81;;;19.94;71.82
12973;BME280;6551;51.056;9.466;2023-06-24T02:05:06;98464.09;;;19.83;71.67
12973;BME280;6551;51.056;9.466;2023-06-24T02:07:34;98464.34;;;19.76;72.03
12973;BME280;6551;51.056;9.466;2023-06-24T02:10:01;98469.16;;;19.74;72.01
12973;BME280;6551;51.056;9.466;2023-06-24T02:12:29;98458.88;;;19.71;71.90
12973;BME280;6551;51.056;9.466;2023-06-24T02:14:57;98462.88;;;19.64;72.14
12973;BME280;6551;51.056;9.466;2023-06-24T02:17:25;98466.34;;;19.59;72.13
12973;BME280;6551;51.056;9.466;2023-06-24T02:19:55;98465.25;;;19.60;72.27
12973;BME280;6551;51.056;9.466;2023-06-24T02:22:22;98459.84;;;19.60;71.73
12973;BME280;6551;51.056;9.466;2023-06-24T02:24:50;98457.94;;;19.56;72.06
12973;BME280;6551;51.056;9.466;2023-06-24T02:27:17;98454.91;;;19.52;71.92
12973;BME280;6551;51.056;9.466;2023-06-24T02:29:45;98464.34;;;19.50;71.78
12973;BME280;6551;51.056;9.466;2023-06-24T02:32:12;98460.31;;;19.52;71.96
12973;BME280;6551;51.056;9.466;2023-06-24T02:34:39;98463.88;;;19.58;71.70
12973;BME280;6551;51.056;9.466;2023-06-24T02:37:05;98463.88;;;19.58;71.53
12973;BME280;6551;51.056;9.466;2023-06-24T02:39:31;98466.34;;;19.59;71.38
12973;BME280;6551;51.056;9.466;2023-06-24T02:41:57;98458.25;;;19.59;71.47
12973;BME280;6551;51.056;9.466;2023-06-24T02:44:24;98457.97;;;19.61;71.50
12973;BME280;6551;51.056;9.466;2023-06-24T02:46:50;98462.88;;;19.64;70.98
12973;BME280;6551;51.056;9.466;2023-06-24T02:49:18;98465.88;;;19.67;70.63
12973;BME280;6551;51.056;9.466;2023-06-24T02:51:45;98466.97;;;19.71;70.22
12973;BME280;6551;51.056;9.466;2023-06-24T02:54:11;98474.53;;;19.69;70.19
12973;BME280;6551;51.056;9.466;2023-06-24T02:56:38;98469.13;;;19.69;70.26
12973;BME280;6551;51.056;9.466;2023-06-24T02:59:08;98467.50;;;19.68;69.86
12973;BME280;6551;51.056;9.466;2023-06-24T03:01:36;98472.34;;;19.66;70.17
12973;BME280;6551;51.056;9.466;2023-06-24T03:04:05;98476.13;;;19.65;69.99
12973;BME280;6551;51.056;9.466;2023-06-24T03:06:31;98474.75;;;19.63;70.12
12973;BME280;6551;51.056;9.466;2023-06-24T03:08:58;98468.81;;;19.66;70.03
12973;BME280;6551;51.056;9.466;2023-06-24T03:11:26;98465.88;;;19.67;69.91
12973;BME280;6551;51.056;9.466;2023-06-24T03:13:53;98470.47;;;19.67;69.60
12973;BME280;6551;51.056;9.466;2023-06-24T03:16:19;98468.03;;;19.65;69.41
12973;BME280;6551;51.056;9.466;2023-06-24T03:18:45;98467.22;;;19.65;69.34
12973;BME280;6551;51.056;9.466;2023-06-24T03:21:12;98469.63;;;19.66;69.15
12973;BME280;6551;51.056;9.466;2023-06-24T03:23:38;98468.81;;;19.66;69.52
12973;BME280;6551;51.056;9.466;2023-06-24T03:26:05;98473.97;;;19.67;69.16
12973;BME280;6551;51.056;9.466;2023-06-24T03:28:33;98474.81;;;19.68;68.99
12973;BME280;6551;51.056;9.466;2023-06-24T03:30:59;98479.06;;;19.64;69.00
12973;BME280;6551;51.056;9.466;2023-06-24T03:33:26;98477.47;;;19.63;69.10
12973;BME280;6551;51.056;9.466;2023-06-24T03:35:53;98478.00;;;19.65;69.00
12973;BME280;6551;51.056;9.466;2023-06-24T03:38:20;98471.28;;;19.67;68.72
12973;BME280;6551;51.056;9.466;2023-06-24T03:40:47;98476.91;;;19.66;68.71
12973;BME280;6551;51.056;9.466;2023-06-24T03:43:13;98481.06;;;19.73;68.66
12973;BME280;6551;51.056;9.466;2023-06-24T03:45:39;98481.09;;;19.78;68.40
12973;BME280;6551;51.056;9.466;2023-06-24T03:48:06;98481.44;;;19.87;68.09
12973;BME280;6551;51.056;9.466;2023-06-24T03:50:32;98483.16;;;19.98;67.97
12973;BME280;6551;51.056;9.466;2023-06-24T03:52:58;98480.81;;;20.12;67.49
12973;BME280;6551;51.056;9.466;2023-06-24T03:55:24;98484.69;;;20.21;66.98
12973;BME280;6551;51.056;9.466;2023-06-24T03:57:50;98484.56;;;20.42;66.30
12973;BME280;6551;51.056;9.466;2023-06-24T04:00:16;98490.09;;;20.63;66.03
12973;BME280;6551;51.056;9.466;2023-06-24T04:02:43;98486.94;;;20.86;64.91
12973;BME280;6551;51.056;9.466;2023-06-24T04:05:11;98493.78;;;21.04;64.27
12973;BME280;6551;51.056;9.466;2023-06-24T04:07:37;98480.31;;;21.19;63.78
12973;BME280;6551;51.056;9.466;2023-06-24T04:10:05;98484.16;;;21.33;63.25
12973;BME280;6551;51.056;9.466;2023-06-24T04:12:35;98479.59;;;21.48;62.62
12973;BME280;6551;51.056;9.466;2023-06-24T04:15:02;98479.59;;;21.64;61.83
12973;BME280;6551;51.056;9.466;2023-06-24T04:17:29;98483.69;;;21.76;61.64
12973;BME280;6551;51.056;9.466;2023-06-24T04:19:55;98486.69;;;21.90;61.19
12973;BME280;6551;51.056;9.466;2023-06-24T04:22:22;98482.09;;;21.95;60.78
12973;BME280;6551;51.056;9.466;2023-06-24T04:24:48;98486.13;;;22.03;60.89
12973;BME280;6551;51.056;9.466;2023-06-24T04:27:14;98491.28;;;22.14;60.81
12973;BME280;6551;51.056;9.466;2023-06-24T04:29:40;98499.41;;;22.30;59.98
12973;BME280;6551;51.056;9.466;2023-06-24T04:32:06;98499.38;;;22.45;59.74
12973;BME280;6551;51.056;9.466;2023-06-24T04:34:32;98493.38;;;22.58;59.79
12973;BME280;6551;51.056;9.466;2023-06-24T04:36:58;98492.28;;;22.69;59.30
12973;BME280;6551;51.056;9.466;2023-06-24T04:39:25;98498.75;;;22.83;59.02
12973;BME280;6551;51.056;9.466;2023-06-24T04:41:51;98500.88;;;23.01;59.14
12973;BME280;6551;51.056;9.466;2023-06-24T04:44:17;98493.75;;;23.10;58.45
12973;BME280;6551;51.056;9.466;2023-06-24T04:46:43;98497.25;;;23.21;58.26
12973;BME280;6551;51.056;9.466;2023-06-24T04:49:09;98504.78;;;23.39;58.02
12973;BME280;6551;51.056;9.466;2023-06-24T04:51:36;98504.97;;;23.53;57.67
12973;BME280;6551;51.056;9.466;2023-06-24T04:54:02;98505.50;;;23.60;57.80
12973;BME280;6551;51.056;9.466;2023-06-24T04:56:29;98504.88;;;23.68;57.54
12973;BME280;6551;51.056;9.466;2023-06-24T04:58:55;98504.53;;;23.79;57.54
12973;BME280;6551;51.056;9.466;2023-06-24T05:01:22;98502.75;;;23.94;57.35
12973;BME280;6551;51.056;9.466;2023-06-24T05:03:48;98511.91;;;24.08;57.16
12973;BME280;6551;51.056;9.466;2023-06-24T05:06:14;98500.94;;;24.23;56.72
12973;BME280;6551;51.056;9.466;2023-06-24T05:08:40;98507.59;;;24.35;56.51
12973;BME280;6551;51.056;9.466;2023-06-24T05:11:06;98509.47;;;24.40;56.64
12973;BME280;6551;51.056;9.466;2023-06-24T05:13:32;98512.41;;;24.43;56.66
12973;BME280;6551;51.056;9.466;2023-06-24T05:15:58;98519.22;;;24.46;56.52
12973;BME280;6551;51.056;9.466;2023-06-24T05:18:24;98523.13;;;24.64;55.92
12973;BME280;6551;51.056;9.466;2023-06-24T05:20:50;98527.16;;;24.66;56.34
12973;BME280;6551;51.056;9.466;2023-06-24T05:23:16;98523.41;;;24.62;56.43
12973;BME280;6551;51.056;9.466;2023-06-24T05:25:42;98516.53;;;24.70;55.70
12973;BME280;6551;51.056;9.466;2023-06-24T05:28:08;98516.41;;;24.85;55.28
12973;BME280;6551;51.056;9.466;2023-06-24T05:30:35;98518.28;;;25.08;54.81
12973;BME280;6551;51.056;9.466;2023-06-24T05:33:01;98516.38;;;25.27;54.09
12973;BME280;6551;51.056;9.466;2023-06-24T05:35:27;98518.78;;;25.34;53.97
12973;BME280;6551;51.056;9.466;2023-06-24T05:37:53;98526.00;;;25.43;53.96
12973;BME280;6551;51.056;9.466;2023-06-24T05:40:19;98519.03;;;25.56;53.64
12973;BME280;6551;51.056;9.466;2023-06-24T05:42:45;98521.47;;;25.76;53.18
12973;BME280;6551;51.056;9.466;2023-06-24T05:45:11;98523.94;;;25.91;52.67
12973;BME280;6551;51.056;9.466;2023-06-24T05:47:37;98524.44;;;26.12;51.95
12973;BME280;6551;51.056;9.466;2023-06-24T05:50:04;98520.88;;;26.30;51.66
12973;BME280;6551;51.056;9.466;2023-06-24T05:52:30;98525.28;;;26.45;51.34
12973;BME280;6551;51.056;9.466;2023-06-24T05:54:56;98520.63;;;26.45;51.76
12973;BME280;6551;51.056;9.466;2023-06-24T05:57:22;98528.88;;;26.08;52.81
12973;BME280;6551;51.056;9.466;2023-06-24T05:59:48;98534.78;;;25.96;53.59
12973;BME280;6551;51.056;9.466;2023-06-24T06:02:14;98539.06;;;26.02;53.54
12973;BME280;6551;51.056;9.466;2023-06-24T06:04:40;98538.19;;;26.07;53.38
12973;BME280;6551;51.056;9.466;2023-06-24T06:07:06;98537.06;;;26.08;53.02
12973;BME280;6551;51.056;9.466;2023-06-24T06:09:32;98538.50;;;25.87;54.76
12973;BME280;6551;51.056;9.466;2023-06-24T06:11:58;98542.94;;;25.64;54.65
12973;BME280;6551;51.056;9.466;2023-06-24T06:14:24;98547.72;;;25.53;54.36
12973;BME280;6551;51.056;9.466;2023-06-24T06:16:51;98546.66;;;25.49;54.64
12973;BME280;6551;51.056;9.466;2023-06-24T06:19:17;98552.47;;;25.43;55.17
12973;BME280;6551;51.056;9.466;2023-06-24T06:21:43;98545.34;;;25.66;54.52
12973;BME280;6551;51.056;9.466;2023-06-24T06:24:09;98552.75;;;25.65;54.65
12973;BME280;6551;51.056;9.466;2023-06-24T06:26:40;98551.09;;;25.83;54.28
12973;BME280;6551;51.056;9.466;2023-06-24T06:29:06;98551.78;;;25.93;54.53
12973;BME280;6551;51.056;9.466;2023-06-24T06:31:32;98558.72;;;26.04;54.29
12973;BME280;6551;51.056;9.466;2023-06-24T06:33:58;98550.66;;;25.94;54.98
12973;BME280;6551;51.056;9.466;2023-06-24T06:36:24;98550.22;;;26.06;54.70
12973;BME280;6551;51.056;9.466;2023-06-24T06:38:50;98551.91;;;26.02;54.17
12973;BME280;6551;51.056;9.466;2023-06-24T06:41:16;98551.16;;;25.96;54.64
12973;BME280;6551;51.056;9.466;2023-06-24T06:43:43;98552.16;;;25.87;55.24
12973;BME280;6551;51.056;9.466;2023-06-24T06:46:09;98549.69;;;25.85;54.88
12973;BME280;6551;51.056;9.466;2023-06-24T06:48:35;98542.31;;;25.86;55.25
12973;BME280;6551;51.056;9.466;2023-06-24T06:51:01;98547.13;;;25.94;54.54
12973;BME280;6551;51.056;9.466;2023-06-24T06:53:27;98538.19;;;25.88;54.51
12973;BME280;6551;51.056;9.466;2023-06-24T06:55:53;98545.66;;;25.64;55.17
12973;BME280;6551;51.056;9.466;2023-06-24T06:58:19;98540.19;;;25.64;55.23
12973;BME280;6551;51.056;9.466;2023-06-24T07:00:45;98545.06;;;25.86;55.24
12973;BME280;6551;51.056;9.466;2023-06-24T07:03:12;98544.75;;;26.25;53.69
12973;BME280;6551;51.056;9.466;2023-06-24T07:05:38;98542.75;;;26.76;52.52
12973;BME280;6551;51.056;9.466;2023-06-24T07:08:05;98546.00;;;27.19;51.48
12973;BME280;6551;51.056;9.466;2023-06-24T07:10:32;98542.38;;;27.51;50.81
12973;BME280;6551;51.056;9.466;2023-06-24T07:12:58;98543.09;;;27.78;50.36
12973;BME280;6551;51.056;9.466;2023-06-24T07:15:25;98540.91;;;28.03;50.15
12973;BME280;6551;51.056;9.466;2023-06-24T07:17:52;98541.31;;;28.32;49.74
12973;BME280;6551;51.056;9.466;2023-06-24T07:20:19;98541.25;;;28.23;49.47
12973;BME280;6551;51.056;9.466;2023-06-24T07:22:45;98533.72;;;28.07;49.99
12973;BME280;6551;51.056;9.466;2023-06-24T07:25:12;98535.94;;;28.27;49.62
12973;BME280;6551;51.056;9.466;2023-06-24T07:27:38;98533.44;;;28.39;49.49
12973;BME280;6551;51.056;9.466;2023-06-24T07:30:05;98537.50;;;28.19;48.67
12973;BME280;6551;51.056;9.466;2023-06-24T07:32:31;98535.69;;;28.37;48.85
12973;BME280;6551;51.056;9.466;2023-06-24T07:34:57;98532.88;;;28.28;48.96
12973;BME280;6551;51.056;9.466;2023-06-24T07:37:24;98533.50;;;28.03;49.10
12973;BME280;6551;51.056;9.466;2023-06-24T07:39:50;98540.44;;;28.23;49.53
12973;BME280;6551;51.056;9.466;2023-06-24T07:42:17;98540.66;;;28.13;49.11
12973;BME280;6551;51.056;9.466;2023-06-24T07:44:48;98547.56;;;27.74;49.67
12973;BME280;6551;51.056;9.466;2023-06-24T07:47:16;98541.34;;;27.47;50.84
12973;BME280;6551;51.056;9.466;2023-06-24T07:49:42;98534.16;;;26.83;51.81
12973;BME280;6551;51.056;9.466;2023-06-24T07:52:08;98543.41;;;26.22;53.74
12973;BME280;6551;51.056;9.466;2023-06-24T07:54:34;98538.63;;;26.14;53.75
12973;BME280;6551;51.056;9.466;2023-06-24T07:57:01;98542.53;;;26.27;54.04
12973;BME280;6551;51.056;9.466;2023-06-24T07:59:27;98535.78;;;26.38;52.76
12973;BME280;6551;51.056;9.466;2023-06-24T08:01:54;98536.81;;;27.01;51.36
12973;BME280;6551;51.056;9.466;2023-06-24T08:04:20;98539.03;;;27.54;50.29
12973;BME280;6551;51.056;9.466;2023-06-24T08:06:46;98529.50;;;27.51;49.82
12973;BME280;6551;51.056;9.466;2023-06-24T08:09:12;98528.56;;;27.56;49.71
12973;BME280;6551;51.056;9.466;2023-06-24T08:11:38;98527.50;;;28.01;48.90
12973;BME280;6551;51.056;9.466;2023-06-24T08:14:04;98531.38;;;28.44;48.42
12973;BME280;6551;51.056;9.466;2023-06-24T08:16:30;98534.69;;;28.86;47.10
12973;BME280;6551;51.056;9.466;2023-06-24T08:18:56;98530.44;;;29.19;45.54
12973;BME280;6551;51.056;9.466;2023-06-24T08:21:22;98526.50;;;29.42;44.92
12973;BME280;6551;51.056;9.466;2023-06-24T08:23:48;98535.41;;;29.56;44.32
12973;BME280;6551;51.056;9.466;2023-06-24T08:26:16;98529.44;;;29.72;44.35
12973;BME280;6551;51.056;9.466;2023-06-24T08:28:42;98527.53;;;29.81;44.15
12973;BME280;6551;51.056;9.466;2023-06-24T08:31:08;98534.66;;;29.82;43.48
12973;BME280;6551;51.056;9.466;2023-06-24T08:33:34;98539.16;;;30.12;43.72
12973;BME280;6551;51.056;9.466;2023-06-24T08:36:00;98537.22;;;30.12;43.53
12973;BME280;6551;51.056;9.466;2023-06-24T08:38:26;98527.84;;;29.96;43.60
12973;BME280;6551;51.056;9.466;2023-06-24T08:40:53;98526.88;;;29.84;44.59
12973;BME280;6551;51.056;9.466;2023-06-24T08:43:19;98529.78;;;30.13;45.04
12973;BME280;6551;51.056;9.466;2023-06-24T08:45:45;98540.63;;;29.84;45.64
12973;BME280;6551;51.056;9.466;2023-06-24T08:48:13;98538.53;;;30.06;45.14
12973;BME280;6551;51.056;9.466;2023-06-24T08:50:51;98538.78;;;30.65;44.66
12973;BME280;6551;51.056;9.466;2023-06-24T08:53:19;98533.97;;;30.91;42.34
12973;BME280;6551;51.056;9.466;2023-06-24T08:55:46;98535.34;;;31.14;43.21
12973;BME280;6551;51.056;9.466;2023-06-24T08:58:14;98534.31;;;31.27;42.69
12973;BME280;6551;51.056;9.466;2023-06-24T09:00:40;98538.31;;;31.68;43.03
12973;BME280;6551;51.056;9.466;2023-06-24T09:03:07;98532.72;;;31.76;42.01
12973;BME280;6551;51.056;9.466;2023-06-24T09:05:33;98528.09;;;31.10;42.13
12973;BME280;6551;51.056;9.466;2023-06-24T09:07:59;98542.81;;;30.67;43.10
12973;BME280;6551;51.056;9.466;2023-06-24T09:10:38;98544.88;;;30.79;43.22
12973;BME280;6551;51.056;9.466;2023-06-24T09:13:06;98539.19;;;31.22;43.50
12973;BME280;6551;51.056;9.466;2023-06-24T09:15:36;98534.47;;;31.31;42.74
12973;BME280;6551;51.056;9.466;2023-06-24T09:18:04;98532.19;;;31.62;42.03
12973;BME280;6551;51.056;9.466;2023-06-24T09:20:31;98528.56;;;32.12;42.33
12973;BME280;6551;51.056;9.466;2023-06-24T09:22:59;98533.66;;;32.55;40.93
12973;BME280;6551;51.056;9.466;2023-06-24T09:25:25;98534.25;;;32.60;40.33
12973;BME280;6551;51.056;9.466;2023-06-24T09:27:51;98532.22;;;32.69;39.61
12973;BME280;6551;51.056;9.466;2023-06-24T09:30:23;98526.25;;;32.67;40.44
12973;BME280;6551;51.056;9.466;2023-06-24T09:32:50;98517.19;;;31.51;41.11
12973;BME280;6551;51.056;9.466;2023-06-24T09:35:21;98517.09;;;31.10;41.17
12973;BME280;6551;51.056;9.466;2023-06-24T09:37:51;98512.81;;;31.50;42.14
12973;BME280;6551;51.056;9.466;2023-06-24T09:40:18;98511.88;;;31.67;41.67
12973;BME280;6551;51.056;9.466;2023-06-24T09:42:54;98510.88;;;31.71;40.78
12973;BME280;6551;51.056;9.466;2023-06-24T09:45:26;98502.34;;;31.85;39.84
12973;BME280;6551;51.056;9.466;2023-06-24T09:47:53;98514.66;;;32.08;40.66
12973;BME280;6551;51.056;9.466;2023-06-24T09:50:20;98507.59;;;31.99;39.21
12973;BME280;6551;51.056;9.466;2023-06-24T09:52:48;98501.16;;;31.45;39.80
12973;BME280;6551;51.056;9.466;2023-06-24T09:55:15;98503.50;;;30.67;41.63
12973;BME280;6551;51.056;9.466;2023-06-24T09:57:51;98504.78;;;31.07;42.48
12973;BME280;6551;51.056;9.466;2023-06-24T10:00:19;98497.00;;;31.39;41.81
12973;BME280;6551;51.056;9.466;2023-06-24T10:02:48;98493.50;;;30.92;41.50
12973;BME280;6551;51.056;9.466;2023-06-24T10:05:14;98496.28;;;30.28;41.34
12973;BME280;6551;51.056;9.466;2023-06-24T10:07:41;98494.53;;;30.24;42.55
12973;BME280;6551;51.056;9.466;2023-06-24T10:10:08;98498.59;;;30.81;40.28
12973;BME280;6551;51.056;9.466;2023-06-24T10:12:38;98488.13;;;31.33;39.25
12973;BME280;6551;51.056;9.466;2023-06-24T10:15:05;98491.28;;;31.44;39.51
12973;BME280;6551;51.056;9.466;2023-06-24T10:17:32;98482.47;;;31.59;39.21
12973;BME280;6551;51.056;9.466;2023-06-24T10:19:58;98482.44;;;31.79;40.60
12973;BME280;6551;51.056;9.466;2023-06-24T10:22:30;98473.59;;;31.24;39.59
12973;BME280;6551;51.056;9.466;2023-06-24T10:25:00;98479.06;;;31.33;40.65
12973;BME280;6551;51.056;9.466;2023-06-24T10:27:26;98478.09;;;31.58;39.84
12973;BME280;6551;51.056;9.466;2023-06-24T10:29:54;98475.13;;;31.63;39.40
12973;BME280;6551;51.056;9.466;2023-06-24T10:32:23;98468.56;;;31.55;38.00
12973;BME280;6551;51.056;9.466;2023-06-24T10:34:56;98480.56;;;31.92;39.31
12973;BME280;6551;51.056;9.466;2023-06-24T10:37:24;98470.59;;;32.00;38.96
12973;BME280;6551;51.056;9.466;2023-06-24T10:39:55;98468.47;;;32.05;38.44
12973;BME280;6551;51.056;9.466;2023-06-24T10:45:02;98469.75;;;32.53;38.72
12973;BME280;6551;51.056;9.466;2023-06-24T10:47:29;98468.25;;;32.43;38.38
12973;BME280;6551;51.056;9.466;2023-06-24T10:49:56;98469.38;;;32.42;39.71
12973;BME280;6551;51.056;9.466;2023-06-24T10:52:23;98466.09;;;32.61;39.19
12973;BME280;6551;51.056;9.466;2023-06-24T10:54:51;98462.91;;;32.95;39.37
12973;BME280;6551;51.056;9.466;2023-06-24T10:57:22;98465.56;;;33.04;37.62
12973;BME280;6551;51.056;9.466;2023-06-24T10:59:49;98462.09;;;32.94;40.19
12973;BME280;6551;51.056;9.466;2023-06-24T11:02:18;98452.66;;;32.83;38.27
12973;BME280;6551;51.056;9.466;2023-06-24T11:07:40;98446.97;;;32.31;40.15
12973;BME280;6551;51.056;9.466;2023-06-24T11:10:16;98445.94;;;31.70;38.73
12973;BME280;6551;51.056;9.466;2023-06-24T11:12:43;98443.09;;;31.58;41.36
12973;BME280;6551;51.056;9.466;2023-06-24T11:15:12;98441.75;;;31.64;39.15
12973;BME280;6551;51.056;9.466;2023-06-24T11:17:39;98441.69;;;31.73;39.94
12973;BME280;6551;51.056;9.466;2023-06-24T11:20:13;98438.22;;;31.97;41.93
12973;BME280;6551;51.056;9.466;2023-06-24T11:22:43;98433.34;;;32.14;40.43
12973;BME280;6551;51.056;9.466;2023-06-24T11:25:20;98427.47;;;32.04;38.98
12973;BME280;6551;51.056;9.466;2023-06-24T11:27:50;98424.75;;;31.42;39.56
12973;BME280;6551;51.056;9.466;2023-06-24T11:30:20;98430.91;;;31.39;40.88
12973;BME280;6551;51.056;9.466;2023-06-24T11:32:46;98426.88;;;31.36;39.42
12973;BME280;6551;51.056;9.466;2023-06-24T11:35:14;98426.38;;;31.43;40.16
12973;BME280;6551;51.056;9.466;2023-06-24T11:37:44;98428.84;;;31.15;40.64
12973;BME280;6551;51.056;9.466;2023-06-24T11:40:11;98430.31;;;30.75;41.96
12973;BME280;6551;51.056;9.466;2023-06-24T11:42:41;98419.31;;;30.75;42.47
12973;BME280;6551;51.056;9.466;2023-06-24T11:45:13;98415.97;;;30.23;42.87
12973;BME280;6551;51.056;9.466;2023-06-24T11:47:42;98408.94;;;29.70;44.62
12973;BME280;6551;51.056;9.466;2023-06-24T11:50:09;98416.84;;;29.20;43.73
12973;BME280;6551;51.056;9.466;2023-06-24T11:52:46;98407.69;;;28.77;44.02
12973;BME280;6551;51.056;9.466;2023-06-24T11:55:22;98405.63;;;28.74;44.38
12973;BME280;6551;51.056;9.466;2023-06-24T12:00:27;98398.50;;;28.33;45.34
12973;BME280;6551;51.056;9.466;2023-06-24T12:02:55;98406.81;;;28.20;45.72
12973;BME280;6551;51.056;9.466;2023-06-24T12:05:32;98400.53;;;27.97;46.84
12973;BME280;6551;51.056;9.466;2023-06-24T12:08:08;98392.09;;;27.85;45.85
12973;BME280;6551;51.056;9.466;2023-06-24T12:10:35;98396.72;;;27.54;48.74
12973;BME280;6551;51.056;9.466;2023-06-24T12:13:02;98387.50;;;27.72;48.52
12973;BME280;6551;51.056;9.466;2023-06-24T12:15:29;98387.84;;;28.01;47.04
12973;BME280;6551;51.056;9.466;2023-06-24T12:17:56;98388.63;;;28.02;47.13
12973;BME280;6551;51.056;9.466;2023-06-24T12:20:23;98385.28;;;28.35;46.31
12973;BME280;6551;51.056;9.466;2023-06-24T12:22:49;98382.84;;;28.65;45.81
12973;BME280;6551;51.056;9.466;2023-06-24T12:25:17;98391.25;;;28.85;44.50
12973;BME280;6551;51.056;9.466;2023-06-24T12:27:43;98393.41;;;29.14;45.13
12973;BME280;6551;51.056;9.466;2023-06-24T12:30:10;98378.38;;;28.94;44.16
12973;BME280;6551;51.056;9.466;2023-06-24T12:32:37;98373.31;;;28.62;44.95
12973;BME280;6551;51.056;9.466;2023-06-24T12:35:03;98382.06;;;28.33;45.69
12973;BME280;6551;51.056;9.466;2023-06-24T12:37:31;98374.47;;;28.00;46.71
12973;BME280;6551;51.056;9.466;2023-06-24T12:39:58;98378.31;;;28.21;46.97
12973;BME280;6551;51.056;9.466;2023-06-24T12:42:25;98377.44;;;28.42;46.66
12973;BME280;6551;51.056;9.466;2023-06-24T12:44:52;98374.50;;;28.39;46.77
12973;BME280;6551;51.056;9.466;2023-06-24T12:47:19;98372.19;;;28.24;48.21
12973;BME280;6551;51.056;9.466;2023-06-24T12:49:45;98370.50;;;28.06;46.86
12973;BME280;6551;51.056;9.466;2023-06-24T12:52:13;98370.06;;;28.12;46.56
12973;BME280;6551;51.056;9.466;2023-06-24T12:54:40;98368.00;;;27.96;46.70
12973;BME280;6551;51.056;9.466;2023-06-24T12:57:06;98367.78;;;27.83;49.25
12973;BME280;6551;51.056;9.466;2023-06-24T12:59:32;98360.63;;;27.74;49.27
12973;BME280;6551;51.056;9.466;2023-06-24T13:01:58;98362.72;;;27.77;49.74
12973;BME280;6551;51.056;9.466;2023-06-24T13:04:24;98362.81;;;27.63;47.54
12973;BME280;6551;51.056;9.466;2023-06-24T13:06:51;98362.91;;;27.80;47.15
12973;BME280;6551;51.056;9.466;2023-06-24T13:09:17;98369.47;;;27.71;47.53
12973;BME280;6551;51.056;9.466;2023-06-24T13:11:44;98354.59;;;27.63;48.98
12973;BME280;6551;51.056;9.466;2023-06-24T13:14:10;98364.03;;;27.49;49.81
12973;BME280;6551;51.056;9.466;2023-06-24T13:16:39;98363.38;;;27.52;49.01
12973;BME280;6551;51.056;9.466;2023-06-24T13:19:05;98360.75;;;27.47;47.32
12973;BME280;6551;51.056;9.466;2023-06-24T13:21:31;98360.81;;;27.77;48.74
12973;BME280;6551;51.056;9.466;2023-06-24T13:23:57;98363.44;;;28.13;48.87
12973;BME280;6551;51.056;9.466;2023-06-24T13:26:23;98354.81;;;28.28;47.02
12973;BME280;6551;51.056;9.466;2023-06-24T13:28:50;98360.50;;;28.40;46.89